createdAt,value
2019-05-18T00:01:19.105Z,8.43
2019-05-18T00:02:54.614Z,8.10
2019-05-18T00:04:31.189Z,8.15
2019-05-18T00:06:08.396Z,7.50
2019-05-18T00:07:44.941Z,8.47
2019-05-18T00:09:23.689Z,7.90
2019-05-18T00:11:01.571Z,7.85
2019-05-18T00:12:37.441Z,8.70
2019-05-18T00:14:13.726Z,7.97
2019-05-18T00:15:52.500Z,8.10
2019-05-18T00:17:33.667Z,8.40
2019-05-18T00:19:15.399Z,8.00
2019-05-18T00:20:55.879Z,8.70
2019-05-18T00:22:31.712Z,7.77
2019-05-18T00:24:09.109Z,7.90
2019-05-18T00:25:44.663Z,8.27
2019-05-18T00:27:20.874Z,7.63
2019-05-18T00:28:56.486Z,7.50
2019-05-18T00:30:34.566Z,6.63
2019-05-18T00:32:10.512Z,7.72
2019-05-18T00:33:46.795Z,8.37
2019-05-18T00:35:24.555Z,7.90
2019-05-18T00:37:00.898Z,9.53
2019-05-18T00:38:37.889Z,7.80
2019-05-18T00:40:14.377Z,7.43
2019-05-18T00:41:49.944Z,8.00
2019-05-18T00:43:26.196Z,7.63
2019-05-18T00:45:01.791Z,7.37
2019-05-18T00:46:39.008Z,7.40
2019-05-18T00:48:14.856Z,7.43
2019-05-18T00:49:51.114Z,8.17
2019-05-18T00:51:28.251Z,7.67
2019-05-18T00:53:04.492Z,7.57
2019-05-18T00:54:40.015Z,7.50
2019-05-18T00:56:16.282Z,7.90
2019-05-18T00:57:51.869Z,7.27
2019-05-18T00:59:29.594Z,7.83
2019-05-18T01:01:05.648Z,7.83
2019-05-18T01:02:46.615Z,7.60
2019-05-18T01:04:22.389Z,7.73
2019-05-18T01:05:58.725Z,7.33
2019-05-18T01:07:34.252Z,7.97
2019-05-18T01:09:13.111Z,8.43
2019-05-18T01:10:50.247Z,8.40
2019-05-18T01:12:26.502Z,10.00
2019-05-18T01:14:02.015Z,7.75
2019-05-18T01:15:38.541Z,8.38
2019-05-18T01:17:14.163Z,8.63
2019-05-18T01:18:50.413Z,8.43
2019-05-18T01:20:25.952Z,8.00
2019-05-18T01:22:02.210Z,9.37
2019-05-18T01:23:39.473Z,8.03
2019-05-18T01:25:16.510Z,8.37
2019-05-18T01:26:52.009Z,8.50
2019-05-18T01:28:28.290Z,9.23
2019-05-18T01:30:05.831Z,8.20
2019-05-18T01:31:43.133Z,8.03
2019-05-18T01:33:18.791Z,8.17
2019-05-18T01:34:55.052Z,9.03
2019-05-18T01:36:30.678Z,8.80
2019-05-18T01:38:07.251Z,9.07
2019-05-18T01:39:42.791Z,10.78
2019-05-18T01:41:20.035Z,9.10
2019-05-18T01:42:55.594Z,9.13
2019-05-18T01:44:31.838Z,8.70
2019-05-18T01:46:07.639Z,9.73
2019-05-18T01:47:43.916Z,11.40
2019-05-18T01:49:19.420Z,8.80
2019-05-18T01:50:55.692Z,9.77
2019-05-18T01:52:31.211Z,9.37
2019-05-18T01:54:07.794Z,10.05
2019-05-18T01:55:43.314Z,9.27
2019-05-18T01:57:19.555Z,9.30
2019-05-18T01:58:55.073Z,10.33
2019-05-18T02:00:31.335Z,8.60
2019-05-18T02:02:06.863Z,9.78
2019-05-18T02:03:43.400Z,9.93
2019-05-18T02:05:18.932Z,8.73
2019-05-18T02:06:55.186Z,8.87
2019-05-18T02:08:30.724Z,9.67
2019-05-18T02:10:08.385Z,8.45
2019-05-18T02:11:43.953Z,8.80
2019-05-18T02:13:20.231Z,9.80
2019-05-18T02:14:55.736Z,9.90
2019-05-18T02:16:32.008Z,9.17
2019-05-18T02:18:07.529Z,10.28
2019-05-18T02:19:43.791Z,10.98
2019-05-18T02:21:19.348Z,10.63
2019-05-18T02:22:55.631Z,10.23
2019-05-18T02:24:31.188Z,11.10
2019-05-18T02:26:07.461Z,10.95
2019-05-18T02:27:42.981Z,10.70
2019-05-18T02:29:19.256Z,11.00
2019-05-18T02:30:54.785Z,11.23
2019-05-18T02:32:31.410Z,11.80
2019-05-18T02:34:06.936Z,11.95
2019-05-18T02:35:43.246Z,10.70
2019-05-18T02:37:19.146Z,10.47
2019-05-18T02:38:55.660Z,10.50
2019-05-18T02:40:31.186Z,10.50
2019-05-18T02:42:07.447Z,10.70
2019-05-18T02:43:43.030Z,12.93
2019-05-18T02:45:19.432Z,11.67
2019-05-18T02:46:54.951Z,10.83
2019-05-18T02:48:47.876Z,10.40
2019-05-18T02:50:10.029Z,12.18
2019-05-18T02:51:46.293Z,11.65
2019-05-18T02:53:21.818Z,10.97
2019-05-18T02:54:58.119Z,11.43
2019-05-18T02:56:33.659Z,10.63
2019-05-18T02:58:09.982Z,10.20
2019-05-18T02:59:45.503Z,10.20
2019-05-18T03:01:21.768Z,10.87
2019-05-18T03:02:57.284Z,11.20
2019-05-18T03:04:33.535Z,10.33
2019-05-18T03:06:09.112Z,11.25
2019-05-18T03:07:45.677Z,10.38
2019-05-18T03:09:21.219Z,11.17
2019-05-18T03:10:58.112Z,10.37
2019-05-18T03:12:33.626Z,11.43
2019-05-18T03:14:09.902Z,11.83
2019-05-18T03:15:45.449Z,11.30
2019-05-18T03:17:21.699Z,10.97
2019-05-18T03:19:07.479Z,11.13
2019-05-18T03:20:35.429Z,10.73
2019-05-18T03:22:11.516Z,11.27
2019-05-18T03:23:48.093Z,11.45
2019-05-18T03:25:23.644Z,12.33
2019-05-18T03:27:01.157Z,10.87
2019-05-18T03:28:36.658Z,10.98
2019-05-18T03:30:13.253Z,11.77
2019-05-18T03:31:48.805Z,12.20
2019-05-18T03:33:29.511Z,11.22
2019-05-18T03:35:02.350Z,10.70
2019-05-18T03:36:38.627Z,10.13
2019-05-18T03:38:14.161Z,11.75
2019-05-18T03:39:50.410Z,10.60
2019-05-18T03:41:25.971Z,10.17
2019-05-18T03:43:03.459Z,11.83
2019-05-18T03:44:38.977Z,11.65
2019-05-18T03:46:15.246Z,10.30
2019-05-18T03:47:50.798Z,9.20
2019-05-18T03:49:27.826Z,9.73
2019-05-18T03:51:03.673Z,9.60
2019-05-18T03:52:39.892Z,9.68
2019-05-18T03:54:15.396Z,9.37
2019-05-18T03:55:51.664Z,9.07
2019-05-18T03:57:27.511Z,9.17
2019-05-18T03:59:03.777Z,9.67
2019-05-18T04:00:39.295Z,9.40
2019-05-18T04:02:15.573Z,9.57
2019-05-18T04:03:51.098Z,9.60
2019-05-18T04:05:27.358Z,9.40
2019-05-18T04:07:02.905Z,9.20
2019-05-18T04:08:39.462Z,10.25
2019-05-18T04:10:15.319Z,8.88
2019-05-18T04:11:51.608Z,9.33
2019-05-18T04:13:27.115Z,9.47
2019-05-18T04:15:03.386Z,8.97
2019-05-18T04:16:39.888Z,7.73
2019-05-18T04:18:16.128Z,9.18
2019-05-18T04:19:51.654Z,8.47
2019-05-18T04:21:27.919Z,9.00
2019-05-18T04:23:03.727Z,9.80
2019-05-18T04:24:39.979Z,8.35
2019-05-18T04:26:15.528Z,8.18
2019-05-18T04:27:51.787Z,8.57
2019-05-18T04:29:27.306Z,8.33
2019-05-18T04:31:03.557Z,7.20
2019-05-18T04:32:39.116Z,7.65
2019-05-18T04:34:15.883Z,7.97
2019-05-18T04:35:51.454Z,7.90
2019-05-18T04:37:27.993Z,8.03
2019-05-18T04:39:05.331Z,7.63
2019-05-18T04:40:41.590Z,7.73
2019-05-18T04:42:17.117Z,7.80
2019-05-18T04:43:53.340Z,7.57
2019-05-18T04:45:29.037Z,7.77
2019-05-18T04:47:05.313Z,7.77
2019-05-18T04:48:40.860Z,8.80
2019-05-18T04:50:17.774Z,8.23
2019-05-18T04:51:53.337Z,6.67
2019-05-18T04:53:29.616Z,6.53
2019-05-18T04:55:06.425Z,7.10
2019-05-18T04:56:43.304Z,7.45
2019-05-18T04:58:18.906Z,7.42
2019-05-18T04:59:55.469Z,6.37
2019-05-18T05:01:32.152Z,6.80
2019-05-18T05:03:08.610Z,6.97
2019-05-18T05:04:44.137Z,7.30
2019-05-18T05:06:20.407Z,6.70
2019-05-18T05:07:57.011Z,7.00
2019-05-18T05:09:33.249Z,6.93
2019-05-18T05:11:08.755Z,7.10
2019-05-18T05:12:45.021Z,6.47
2019-05-18T05:14:20.689Z,7.67
2019-05-18T05:15:58.559Z,7.83
2019-05-18T05:17:34.117Z,7.47
2019-05-18T05:19:10.372Z,6.47
2019-05-18T05:20:47.163Z,7.05
2019-05-18T05:22:23.718Z,6.47
2019-05-18T05:23:59.223Z,6.43
2019-05-18T05:25:35.484Z,7.30
2019-05-18T05:27:11.013Z,6.70
2019-05-18T05:28:47.274Z,6.80
2019-05-18T05:30:22.800Z,7.00
2019-05-18T05:31:59.049Z,6.50
2019-05-18T05:33:34.572Z,7.30
2019-05-18T05:35:10.968Z,8.28
2019-05-18T05:36:47.540Z,7.72
2019-05-18T05:38:24.150Z,7.17
2019-05-18T05:39:59.657Z,7.17
2019-05-18T05:41:36.675Z,6.67
2019-05-18T05:43:12.213Z,6.63
2019-05-18T05:44:48.473Z,7.03
2019-05-18T05:46:23.995Z,6.93
2019-05-18T05:48:00.263Z,7.20
2019-05-18T05:49:35.773Z,6.87
2019-05-18T05:51:12.321Z,6.70
2019-05-18T05:52:47.882Z,6.73
2019-05-18T05:54:24.101Z,6.87
2019-05-18T05:56:00.737Z,6.97
2019-05-18T05:57:36.985Z,6.60
2019-05-18T05:59:12.521Z,7.17
2019-05-18T06:00:48.780Z,6.87
2019-05-18T06:02:24.290Z,6.60
2019-05-18T06:04:00.554Z,7.00
2019-05-18T06:05:37.041Z,6.67
2019-05-18T06:07:13.383Z,6.87
2019-05-18T06:08:48.935Z,6.87
2019-05-18T06:10:25.195Z,6.73
2019-05-18T06:12:01.142Z,6.20
2019-05-18T06:13:37.453Z,6.17
2019-05-18T06:15:13.265Z,6.97
2019-05-18T06:16:49.519Z,7.00
2019-05-18T06:18:25.040Z,6.73
2019-05-18T06:20:01.328Z,7.07
2019-05-18T06:21:36.840Z,6.30
2019-05-18T06:23:13.447Z,6.40
2019-05-18T06:24:50.767Z,6.40
2019-05-18T06:26:27.038Z,6.10
2019-05-18T06:28:02.589Z,6.10
2019-05-18T06:29:39.987Z,6.43
2019-05-18T06:31:15.535Z,6.60
2019-05-18T06:32:51.811Z,6.50
2019-05-18T06:34:27.393Z,6.40
2019-05-18T06:36:03.631Z,6.23
2019-05-18T06:37:39.132Z,7.00
2019-05-18T06:39:15.428Z,7.17
2019-05-18T06:40:50.914Z,6.30
2019-05-18T06:42:27.413Z,6.20
2019-05-18T06:44:03.372Z,7.03
2019-05-18T06:45:40.087Z,6.53
2019-05-18T06:47:15.721Z,6.40
2019-05-18T06:48:52.007Z,5.95
2019-05-18T06:50:33.484Z,6.77
2019-05-18T06:52:09.794Z,7.07
2019-05-18T06:53:45.316Z,6.10
2019-05-18T06:55:21.618Z,6.30
2019-05-18T06:56:58.281Z,6.37
2019-05-18T06:58:35.802Z,5.95
2019-05-18T07:00:16.005Z,6.30
2019-05-18T07:01:55.288Z,6.17
2019-05-18T07:03:31.475Z,6.95
2019-05-18T07:05:08.927Z,6.03
2019-05-18T07:06:44.706Z,6.20
2019-05-18T07:08:21.314Z,6.33
2019-05-18T07:09:56.866Z,6.30
2019-05-18T07:11:33.174Z,6.30
2019-05-18T07:13:08.702Z,6.62
2019-05-18T07:14:45.240Z,7.43
2019-05-18T07:16:21.106Z,6.92
2019-05-18T07:17:58.761Z,7.15
2019-05-18T07:19:35.928Z,6.28
2019-05-18T07:21:21.819Z,7.28
2019-05-18T07:22:50.958Z,7.23
2019-05-18T07:24:27.255Z,6.80
2019-05-18T07:26:06.905Z,6.60
2019-05-18T07:28:00.984Z,6.83
2019-05-18T07:29:37.275Z,6.62
2019-05-18T07:31:13.184Z,7.08
2019-05-18T07:32:49.478Z,6.80
2019-05-18T07:34:26.669Z,6.70
2019-05-18T07:36:03.148Z,6.35
2019-05-18T07:37:39.439Z,6.90
2019-05-18T07:39:15.714Z,7.67
2019-05-18T07:40:51.269Z,6.92
2019-05-18T07:42:27.748Z,6.37
2019-05-18T07:44:03.273Z,6.22
2019-05-18T07:45:40.579Z,6.68
2019-05-18T07:47:16.343Z,6.47
2019-05-18T07:48:52.596Z,6.50
2019-05-18T07:50:28.133Z,7.33
2019-05-18T07:52:04.376Z,6.87
2019-05-18T07:53:40.163Z,6.86
2019-05-18T07:55:16.526Z,6.92
2019-05-18T07:56:52.053Z,6.40
2019-05-18T07:58:28.359Z,7.30
2019-05-18T08:00:07.745Z,6.67
2019-05-18T08:01:44.245Z,6.55
2019-05-18T08:03:19.759Z,6.62
2019-05-18T08:04:56.035Z,6.22
2019-05-18T08:06:31.566Z,6.87
2019-05-18T08:08:07.799Z,6.42
2019-05-18T08:09:44.298Z,7.28
2019-05-18T08:11:20.557Z,6.85
2019-05-18T08:12:56.083Z,7.47
2019-05-18T08:14:32.340Z,7.45
2019-05-18T08:16:07.864Z,6.92
2019-05-18T08:17:44.107Z,7.03
2019-05-18T08:19:19.678Z,6.85
2019-05-18T08:20:55.924Z,7.70
2019-05-18T08:22:31.512Z,6.53
2019-05-18T08:24:07.778Z,7.20
2019-05-18T08:25:44.912Z,6.87
2019-05-18T08:27:21.175Z,6.92
2019-05-18T08:28:56.711Z,7.08
2019-05-18T08:30:32.969Z,7.28
2019-05-18T08:32:08.511Z,6.58
2019-05-18T08:33:45.166Z,7.10
2019-05-18T08:35:20.951Z,7.20
2019-05-18T08:36:57.218Z,7.45
2019-05-18T08:38:32.743Z,8.13
2019-05-18T08:40:10.993Z,6.65
2019-05-18T08:41:48.733Z,7.10
2019-05-18T08:43:24.465Z,7.15
2019-05-18T08:45:00.016Z,7.37
2019-05-18T08:46:36.262Z,7.22
2019-05-18T08:48:13.237Z,7.10
2019-05-18T08:49:49.983Z,6.67
2019-05-18T08:51:25.503Z,6.57
2019-05-18T08:53:01.750Z,6.33
2019-05-18T08:54:37.549Z,6.78
2019-05-18T08:56:14.015Z,6.70
2019-05-18T08:57:49.531Z,7.17
2019-05-18T08:59:25.817Z,6.43
2019-05-18T09:01:01.336Z,6.47
2019-05-18T09:02:37.586Z,9.80
2019-05-18T09:04:14.122Z,6.78
2019-05-18T09:05:50.395Z,6.77
2019-05-18T09:07:25.914Z,6.90
2019-05-18T09:09:02.153Z,6.90
2019-05-18T09:10:37.863Z,6.60
2019-05-18T09:12:14.900Z,6.45
2019-05-18T09:13:50.407Z,7.15
2019-05-18T09:15:26.981Z,6.55
2019-05-18T09:17:02.522Z,5.95
2019-05-18T09:18:39.260Z,6.80
2019-05-18T09:20:21.140Z,6.58
2019-05-18T09:22:04.261Z,5.97
2019-05-18T09:23:43.205Z,6.50
2019-05-18T09:25:18.811Z,6.53
2019-05-18T09:26:55.082Z,6.70
2019-05-18T09:28:30.601Z,6.50
2019-05-18T09:30:09.947Z,5.65
2019-05-18T09:31:45.451Z,5.90
2019-05-18T09:33:21.725Z,6.65
2019-05-18T09:34:57.614Z,5.80
2019-05-18T09:36:33.882Z,5.90
2019-05-18T09:38:09.396Z,5.67
2019-05-18T09:39:46.302Z,6.10
2019-05-18T09:41:22.909Z,6.35
2019-05-18T09:43:01.841Z,5.42
2019-05-18T09:44:37.409Z,6.12
2019-05-18T09:46:13.643Z,5.92
2019-05-18T09:47:49.190Z,5.85
2019-05-18T09:49:25.425Z,5.70
2019-05-18T09:51:00.946Z,5.83
2019-05-18T09:52:45.077Z,4.80
2019-05-18T09:54:14.833Z,5.22
2019-05-18T09:55:51.106Z,5.48
2019-05-18T09:57:26.634Z,6.40
2019-05-18T09:59:02.884Z,5.80
2019-05-18T10:00:39.261Z,5.90
2019-05-18T10:02:17.542Z,5.80
2019-05-18T10:03:53.009Z,5.63
2019-05-18T10:05:29.660Z,5.92
2019-05-18T10:07:07.045Z,5.85
2019-05-18T10:08:44.622Z,5.75
2019-05-18T10:10:23.548Z,5.40
2019-05-18T10:12:02.774Z,6.10
2019-05-18T10:13:41.459Z,6.22
2019-05-18T10:15:18.009Z,6.08
2019-05-18T10:16:53.538Z,5.67
2019-05-18T10:18:31.406Z,5.80
2019-05-18T10:20:08.738Z,5.45
2019-05-18T10:21:46.087Z,5.12
2019-05-18T10:23:21.613Z,5.46
2019-05-18T10:24:58.853Z,5.67
2019-05-18T10:26:34.373Z,4.97
2019-05-18T10:28:10.944Z,5.37
2019-05-18T10:29:47.711Z,5.50
2019-05-18T10:31:27.085Z,5.05
2019-05-18T10:33:02.949Z,5.50
2019-05-18T10:34:39.242Z,5.55
2019-05-18T10:36:14.812Z,5.17
2019-05-18T10:37:51.311Z,5.90
2019-05-18T10:39:26.915Z,5.15
2019-05-18T10:41:03.200Z,5.37
2019-05-18T10:42:38.712Z,7.00
2019-05-18T10:44:14.982Z,5.78
2019-05-18T10:45:50.496Z,5.47
2019-05-18T10:47:26.757Z,5.80
2019-05-18T10:49:02.333Z,5.45
2019-05-18T10:50:38.632Z,6.20
2019-05-18T10:52:14.501Z,6.20
2019-05-18T10:53:51.000Z,5.47
2019-05-18T10:55:26.959Z,5.42
2019-05-18T10:57:03.262Z,5.60
2019-05-18T10:58:38.859Z,5.20
2019-05-18T11:00:16.736Z,5.62
2019-05-18T11:01:52.281Z,6.53
2019-05-18T11:03:28.537Z,5.83
2019-05-18T11:05:05.612Z,5.30
2019-05-18T11:06:42.136Z,5.33
2019-05-18T11:08:17.662Z,5.80
2019-05-18T11:09:54.053Z,6.30
2019-05-18T11:11:29.723Z,5.62
2019-05-18T11:13:08.768Z,5.53
2019-05-18T11:14:44.347Z,5.62
2019-05-18T11:16:21.087Z,6.35
2019-05-18T11:17:56.659Z,5.53
2019-05-18T11:19:33.983Z,5.58
2019-05-18T11:21:09.508Z,5.25
2019-05-18T11:22:45.763Z,4.85
2019-05-18T11:24:21.295Z,4.72
2019-05-18T11:25:57.550Z,5.30
2019-05-18T11:27:34.701Z,5.87
2019-05-18T11:29:10.978Z,5.33
2019-05-18T11:30:46.506Z,5.12
2019-05-18T11:32:24.336Z,6.08
2019-05-18T11:34:00.371Z,5.30
2019-05-18T11:35:37.572Z,5.03
2019-05-18T11:37:13.158Z,5.08
2019-05-18T11:38:49.533Z,4.78
2019-05-18T11:40:25.190Z,4.97
2019-05-18T11:42:01.466Z,8.23
2019-05-18T11:43:36.990Z,4.90
2019-05-18T11:45:17.026Z,5.17
2019-05-18T11:46:52.556Z,6.00
2019-05-18T11:48:29.088Z,5.25
2019-05-18T11:50:11.464Z,5.20
2019-05-18T11:51:47.662Z,5.15
2019-05-18T11:53:23.243Z,5.20
2019-05-18T11:54:59.512Z,5.03
2019-05-18T11:56:35.035Z,5.28
2019-05-18T11:58:11.291Z,4.90
2019-05-18T11:59:46.799Z,5.22
2019-05-18T12:01:23.366Z,5.90
2019-05-18T12:02:58.876Z,5.95
2019-05-18T12:04:35.437Z,5.40
2019-05-18T12:06:11.001Z,5.83
2019-05-18T12:07:47.274Z,5.28
2019-05-18T12:09:23.407Z,6.30
2019-05-18T12:10:59.644Z,5.55
2019-05-18T12:12:35.160Z,5.92
2019-05-18T12:14:12.323Z,5.60
2019-05-18T12:15:47.838Z,5.70
2019-05-18T12:17:24.776Z,4.97
2019-05-18T12:19:00.286Z,5.15
2019-05-18T12:20:36.552Z,5.28
2019-05-18T12:22:12.063Z,5.37
2019-05-18T12:23:48.367Z,5.40
2019-05-18T12:25:24.219Z,6.96
2019-05-18T12:27:00.470Z,5.95
2019-05-18T12:28:36.741Z,5.30
2019-05-18T12:30:14.312Z,5.62
2019-05-18T12:31:49.836Z,5.03
2019-05-18T12:33:26.125Z,7.50
2019-05-18T12:35:01.798Z,5.67
2019-05-18T12:36:38.330Z,5.45
2019-05-18T12:38:14.834Z,5.62
2019-05-18T12:39:54.676Z,5.25
2019-05-18T12:41:30.174Z,5.55
2019-05-18T12:43:06.444Z,5.20
2019-05-18T12:44:41.975Z,5.37
2019-05-18T12:46:18.267Z,5.10
2019-05-18T12:48:01.348Z,5.28
2019-05-18T12:49:37.621Z,5.67
2019-05-18T12:51:14.286Z,5.03
2019-05-18T12:52:51.538Z,5.22
2019-05-18T12:54:31.101Z,5.50
2019-05-18T12:56:05.907Z,5.63
2019-05-18T12:57:41.897Z,6.58
2019-05-18T12:59:18.187Z,6.08
2019-05-18T13:00:56.341Z,5.65
2019-05-18T13:02:32.587Z,6.08
2019-05-18T13:04:08.108Z,5.83
2019-05-18T13:05:48.981Z,5.75
2019-05-18T13:07:24.475Z,5.78
2019-05-18T13:09:06.033Z,5.33
2019-05-18T13:10:49.849Z,5.50
2019-05-18T13:12:49.908Z,5.68
2019-05-18T13:14:53.877Z,5.62
2019-05-18T13:16:43.663Z,6.40
2019-05-18T13:18:25.611Z,5.62
2019-05-18T13:20:01.938Z,8.20
2019-05-18T13:21:38.202Z,8.40
2019-05-18T13:23:13.735Z,5.67
2019-05-18T13:24:52.315Z,6.25
2019-05-18T13:26:27.597Z,6.42
2019-05-18T13:28:04.125Z,6.63
2019-05-18T13:29:39.951Z,6.40
2019-05-18T13:31:22.517Z,5.95
2019-05-18T13:33:10.043Z,5.50
2019-05-18T13:34:52.746Z,6.67
2019-05-18T13:36:30.498Z,5.70
2019-05-18T13:38:07.022Z,6.20
2019-05-18T13:39:43.284Z,6.77
2019-05-18T13:41:18.756Z,6.00
2019-05-18T13:42:55.117Z,6.05
2019-05-18T13:44:30.648Z,5.70
2019-05-18T13:46:07.180Z,6.15
2019-05-18T13:47:42.696Z,6.17
2019-05-18T13:49:18.983Z,5.72
2019-05-18T13:50:56.365Z,5.80
2019-05-18T13:52:33.595Z,6.87
2019-05-18T13:54:09.340Z,6.50
2019-05-18T13:55:55.670Z,6.03
2019-05-18T13:57:41.964Z,6.67
2019-05-18T14:01:34.161Z,6.30
2019-05-18T14:03:10.802Z,7.20
2019-05-18T14:04:57.688Z,6.92
2019-05-18T14:06:44.375Z,6.53
2019-05-18T14:08:26.105Z,6.53
2019-05-18T14:10:08.566Z,7.42
2019-05-18T14:11:48.860Z,6.58
2019-05-18T14:13:29.636Z,5.84
2019-05-18T14:15:11.686Z,6.90
2019-05-18T14:16:48.223Z,6.78
2019-05-18T14:18:24.495Z,6.45
2019-05-18T14:20:05.921Z,6.15
2019-05-18T14:21:42.138Z,6.72
2019-05-18T14:23:21.140Z,6.57
2019-05-18T14:24:57.053Z,7.08
2019-05-18T14:26:35.702Z,7.67
2019-05-18T14:28:14.498Z,7.40
2019-05-18T14:30:02.348Z,7.35
2019-05-18T14:31:59.861Z,7.40
2019-05-18T14:34:02.905Z,7.40
2019-05-18T14:36:03.847Z,7.90
2019-05-18T14:38:04.175Z,7.30
2019-05-18T14:40:03.685Z,7.78
2019-05-18T14:41:47.027Z,7.72
2019-05-18T14:46:28.386Z,7.67
2019-05-18T14:48:25.149Z,8.10
2019-05-18T14:50:34.862Z,8.23
2019-05-18T14:52:24.083Z,8.63
2019-05-18T14:54:25.907Z,8.95
2019-05-18T14:56:16.658Z,9.13
2019-05-18T14:57:57.122Z,7.97
2019-05-18T14:59:37.229Z,8.00
2019-05-18T15:01:13.037Z,9.00
2019-05-18T15:02:53.153Z,8.80
2019-05-18T15:04:30.085Z,8.98
2019-05-18T15:06:11.933Z,8.97
2019-05-18T15:07:49.455Z,8.97
2019-05-18T15:09:54.158Z,8.85
2019-05-18T15:12:07.868Z,9.03
2019-05-18T15:14:19.889Z,8.75
2019-05-18T15:16:19.938Z,8.78
2019-05-18T15:24:20.164Z,8.30
2019-05-18T15:24:56.601Z,8.80
2019-05-18T15:27:36.389Z,8.03
2019-05-18T15:32:25.718Z,8.90
2019-05-18T15:34:13.093Z,8.60
2019-05-18T15:38:37.187Z,8.80
2019-05-18T15:40:26.496Z,9.15
2019-05-18T15:42:22.746Z,9.58
2019-05-18T15:44:18.725Z,9.75
2019-05-18T15:46:05.657Z,9.28
2019-05-18T15:47:48.455Z,8.57
2019-05-18T15:51:46.257Z,8.13
2019-05-18T15:53:33.177Z,9.15
2019-05-18T15:55:22.188Z,8.88
2019-05-18T15:57:08.339Z,8.78
2019-05-18T15:58:49.007Z,8.27
2019-05-18T16:03:03.801Z,8.88
2019-05-18T16:04:50.628Z,9.20
2019-05-18T16:08:28.957Z,9.20
2019-05-18T16:10:27.076Z,9.75
2019-05-18T16:12:10.091Z,9.10
2019-05-18T16:16:25.500Z,9.23
2019-05-18T16:19:04.719Z,9.36
2019-05-18T16:20:53.972Z,9.90
2019-05-18T16:22:24.614Z,9.63
2019-05-18T16:24:10.785Z,9.33
2019-05-18T16:26:20.819Z,9.08
2019-05-18T16:27:47.138Z,9.55
2019-05-18T16:29:24.264Z,9.37
2019-05-18T16:31:02.270Z,9.53
2019-05-18T16:32:50.935Z,9.45
2019-05-18T16:34:25.736Z,9.63
2019-05-18T16:36:02.814Z,9.90
2019-05-18T16:37:40.481Z,9.45
2019-05-18T16:39:15.985Z,9.35
2019-05-18T16:41:05.533Z,9.78
2019-05-18T16:42:46.558Z,9.45
2019-05-18T16:44:24.541Z,9.63
2019-05-18T16:46:08.066Z,9.55
2019-05-18T16:47:45.579Z,9.17
2019-05-18T16:49:25.437Z,8.90
2019-05-18T16:51:12.698Z,8.83
2019-05-18T16:52:54.454Z,10.50
2019-05-18T16:54:37.707Z,10.10
2019-05-18T16:56:46.775Z,10.55
2019-05-18T16:58:28.718Z,9.33
2019-05-18T17:00:10.612Z,9.40
2019-05-18T17:02:11.747Z,9.40
2019-05-18T17:04:11.698Z,9.58
2019-05-18T17:06:07.989Z,9.73
2019-05-18T17:08:09.334Z,10.16
2019-05-18T17:10:02.751Z,9.13
2019-05-18T17:11:56.064Z,9.08
2019-05-18T17:13:48.283Z,9.28
2019-05-18T17:15:24.594Z,9.68
2019-05-18T17:17:12.229Z,10.90
2019-05-18T17:18:47.309Z,9.37
2019-05-18T17:21:00.795Z,9.67
2019-05-18T17:22:35.240Z,9.48
2019-05-18T17:24:15.032Z,9.08
2019-05-18T17:25:58.503Z,8.50
2019-05-18T17:27:35.277Z,9.03
2019-05-18T17:29:10.813Z,8.40
2019-05-18T17:31:08.751Z,8.38
2019-05-18T17:32:47.513Z,8.50
2019-05-18T17:34:27.577Z,8.30
2019-05-18T17:36:11.274Z,8.48
2019-05-18T17:37:47.032Z,8.46
2019-05-18T17:39:23.388Z,8.30
2019-05-18T17:40:58.903Z,8.95
2019-05-18T17:42:35.204Z,10.20
2019-05-18T17:44:11.258Z,8.48
2019-05-18T17:45:47.543Z,11.05
2019-05-18T17:47:23.087Z,9.23
2019-05-18T17:48:59.353Z,9.60
2019-05-18T17:50:40.016Z,8.33
2019-05-18T17:52:16.277Z,8.40
2019-05-18T17:53:51.777Z,8.98
2019-05-18T17:55:28.321Z,9.20
2019-05-18T17:57:08.450Z,9.58
2019-05-18T17:58:43.156Z,9.80
2019-05-18T18:00:21.228Z,11.22
2019-05-18T18:01:57.761Z,9.47
2019-05-18T18:03:33.301Z,9.15
2019-05-18T18:05:10.418Z,9.85
2019-05-18T18:06:46.017Z,9.18
2019-05-18T18:08:22.313Z,9.80
2019-05-18T18:09:57.842Z,9.23
2019-05-18T18:11:34.168Z,9.33
2019-05-18T18:13:09.757Z,8.80
2019-05-18T18:14:46.075Z,9.00
2019-05-18T18:16:23.296Z,9.73
2019-05-18T18:18:03.341Z,9.13
2019-05-18T18:19:47.349Z,9.83
2019-05-18T18:21:38.236Z,9.45
2019-05-18T18:23:15.346Z,9.73
2019-05-18T18:25:04.128Z,9.53
2019-05-18T18:26:39.893Z,10.30
2019-05-18T18:28:27.986Z,10.40
2019-05-18T18:30:07.862Z,10.90
2019-05-18T18:31:44.884Z,11.00
2019-05-18T18:33:23.407Z,10.93
2019-05-18T18:34:59.954Z,11.95
2019-05-18T18:36:35.559Z,10.78
2019-05-18T18:38:11.860Z,11.22
2019-05-18T18:39:47.445Z,10.75
2019-05-18T18:41:23.827Z,10.68
2019-05-18T18:42:59.414Z,11.43
2019-05-18T18:44:35.707Z,11.45
2019-05-18T18:46:11.255Z,11.28
2019-05-18T18:47:47.534Z,10.60
2019-05-18T18:49:23.072Z,10.75
2019-05-18T18:50:59.350Z,11.38
2019-05-18T18:52:34.911Z,15.08
2019-05-18T18:54:12.900Z,12.55
2019-05-18T18:55:48.515Z,11.68
2019-05-18T18:57:39.738Z,11.97
2019-05-18T18:59:02.272Z,10.45
2019-05-18T19:00:38.781Z,10.82
2019-05-18T19:02:15.197Z,11.40
2019-05-18T19:03:51.469Z,11.03
2019-05-18T19:05:27.249Z,13.58
2019-05-18T19:07:03.602Z,14.40
2019-05-18T19:08:39.155Z,14.23
2019-05-18T19:10:16.719Z,13.62
2019-05-18T19:11:52.562Z,14.45
2019-05-18T19:13:28.849Z,13.18
2019-05-18T19:15:07.677Z,13.30
2019-05-18T19:16:43.987Z,12.37
2019-05-18T19:18:19.536Z,14.50
2019-05-18T19:19:55.796Z,13.00
2019-05-18T19:21:31.371Z,15.17
2019-05-18T19:23:07.679Z,14.63
2019-05-18T19:24:45.961Z,15.28
2019-05-18T19:26:22.611Z,15.20
2019-05-18T19:28:01.329Z,15.80
2019-05-18T19:29:39.215Z,15.65
2019-05-18T19:31:14.890Z,15.18
2019-05-18T19:32:51.271Z,15.63
2019-05-18T19:34:26.908Z,17.80
2019-05-18T19:36:03.257Z,16.75
2019-05-18T19:37:40.571Z,17.30
2019-05-18T19:39:17.753Z,15.68
2019-05-18T19:40:57.936Z,16.30
2019-05-18T19:42:34.263Z,15.83
2019-05-18T19:44:09.831Z,15.58
2019-05-18T19:45:46.120Z,15.53
2019-05-18T19:47:21.933Z,14.32
2019-05-18T19:48:58.290Z,15.90
2019-05-18T19:50:54.095Z,15.17
2019-05-18T19:52:29.785Z,17.03
2019-05-18T19:54:06.168Z,15.63
2019-05-18T19:55:50.613Z,16.85
2019-05-18T19:57:28.573Z,16.17
2019-05-18T19:59:04.565Z,16.20
2019-05-18T20:00:48.455Z,16.67
2019-05-18T20:02:24.876Z,17.70
2019-05-18T20:04:02.167Z,16.80
2019-05-18T20:05:39.622Z,18.23
2019-05-18T20:07:15.149Z,24.97
2019-05-18T20:08:51.456Z,24.95
2019-05-18T20:10:26.969Z,22.45
2019-05-18T20:12:03.246Z,23.03
2019-05-18T20:13:38.797Z,22.70
2019-05-18T20:15:14.143Z,22.93
2019-05-18T20:16:49.495Z,20.37
2019-05-18T20:18:25.751Z,20.45
2019-05-18T20:20:01.293Z,19.17
2019-05-18T20:21:37.567Z,19.67
2019-05-18T20:23:13.281Z,19.20
2019-05-18T20:24:50.628Z,20.47
2019-05-18T20:26:26.201Z,21.40
2019-05-18T20:28:02.479Z,22.85
2019-05-18T20:29:38.271Z,20.93
2019-05-18T20:31:18.356Z,22.57
2019-05-18T20:32:55.259Z,22.40
2019-05-18T20:34:31.722Z,21.27
2019-05-18T20:36:13.868Z,20.63
2019-05-18T20:37:50.607Z,21.42
2019-05-18T20:39:27.010Z,23.42
2019-05-18T20:41:07.547Z,24.13
2019-05-18T20:42:43.944Z,23.87
2019-05-18T20:44:20.853Z,23.70
2019-05-18T20:46:00.806Z,22.95
2019-05-18T20:47:37.951Z,26.55
2019-05-18T20:49:14.333Z,22.63
2019-05-18T20:50:51.162Z,23.18
2019-05-18T20:52:28.409Z,23.87
2019-05-18T20:54:04.201Z,23.60
2019-05-18T20:55:49.869Z,26.00
2019-05-18T20:57:31.526Z,26.00
2019-05-18T20:59:09.844Z,25.40
2019-05-18T21:01:17.014Z,25.10
2019-05-18T21:02:57.690Z,25.17
2019-05-18T21:04:35.762Z,23.60
2019-05-18T21:06:11.471Z,24.30
2019-05-18T21:07:47.808Z,24.33
2019-05-18T21:09:23.389Z,23.43
2019-05-18T21:10:59.840Z,24.95
2019-05-18T21:12:35.409Z,24.50
2019-05-18T21:14:12.723Z,25.10
2019-05-18T21:15:53.568Z,27.27
2019-05-18T21:17:30.685Z,26.40
2019-05-18T21:19:07.883Z,24.73
2019-05-18T21:20:59.945Z,25.23
2019-05-18T21:22:37.174Z,24.12
2019-05-18T21:24:15.955Z,23.50
2019-05-18T21:26:02.907Z,26.20
2019-05-18T21:27:47.126Z,25.33
2019-05-18T21:29:23.562Z,24.83
2019-05-18T21:31:06.939Z,25.70
2019-05-18T21:32:50.652Z,24.43
2019-05-18T21:34:28.108Z,22.63
2019-05-18T21:36:10.464Z,21.90
2019-05-18T21:37:52.286Z,21.00
2019-05-18T21:39:33.944Z,21.43
2019-05-18T21:41:11.529Z,21.82
2019-05-18T21:42:58.500Z,20.63
2019-05-18T21:44:32.178Z,22.27
2019-05-18T21:46:24.766Z,21.57
2019-05-18T21:48:16.950Z,19.85
2019-05-18T21:50:05.893Z,23.87
2019-05-18T21:52:01.242Z,22.80
2019-05-18T21:53:42.846Z,22.10
2019-05-18T21:55:27.868Z,24.40
2019-05-18T21:57:05.191Z,23.55
2019-05-18T21:58:48.503Z,21.82
2019-05-18T22:02:23.190Z,22.67
2019-05-18T22:04:01.179Z,23.20
2019-05-18T22:05:54.070Z,23.20
2019-05-18T22:07:29.707Z,22.67